Time;durP1;ratioP1;P1;durP2;ratioP2;P2;SDS_P1;SDS_P2;PMS_P1;PMS_P2;Temp;Humidity;BMP_temperature;BMP_pressure;BME280_temperature;BME280_humidity;BME280_pressure;Samples;Min_cycle;Max_cycle;Signal;HPM_P1;HPM_P2
2021/12/07 00:02:04;;;;;;;;;;;;;;;;;;5084944;28;19932;-64
2021/12/07 00:04:31;;;;;;;;;;;;;;;;;;5083859;28;19931;-62
2021/12/07 00:06:58;;;;;;;;;;;;;;;;;;5081186;28;20266;-64
2021/12/07 00:09:25;;;;;;;;;;;;;;;;;;5080415;28;19966;-62
2021/12/07 00:11:52;;;;;;;;;;;;;;;;;;5080531;28;19925;-62
2021/12/07 00:14:24;;;;;;;;;;;;;;;;;;5085772;28;20014;-63
2021/12/07 00:16:51;;;;;;;;;;;;;;;;;;5078850;28;19928;-63
2021/12/07 00:19:18;;;;;;;;;;;;;;;;;;5085242;28;20381;-63
2021/12/07 00:21:45;;;;;;;;;;;;;;;;;;5084788;28;19924;-63
2021/12/07 00:24:12;;;;;;;;;;;;;;;;;;5082634;28;19924;-63
2021/12/07 00:26:39;;;;;;;;;;;;;;;;;;5084167;28;19924;-63
2021/12/07 00:29:06;;;;;;;;;;;;;;;;;;5082607;28;20263;-63
2021/12/07 00:31:39;;;;;;;;;;;;;;;;;;5079194;28;19924;-64
2021/12/07 00:34:13;;;;;;;;;;;;;;;;;;5082514;28;19974;-62
2021/12/07 00:36:41;;;;;;;;;;;;;;;;;;5081344;28;19982;-63
2021/12/07 00:39:08;;;;;;;;;;;;;;;;;;5083381;28;20018;-63
2021/12/07 00:41:35;;;;;;;;;;;;;;;;;;5080559;28;19931;-63
2021/12/07 00:44:02;;;;;;;;;;;;;;;;;;5083527;28;19924;-64
2021/12/07 00:46:29;;;;;;;;;;;;;;;;;;5076596;28;19935;-64
2021/12/07 00:48:56;;;;;;;;;;;;;;;;;;5081244;28;19979;-64
2021/12/07 00:51:23;;;;;;;;;;;;;;;;;;5082517;28;19931;-64
2021/12/07 00:53:50;;;;;;;;;;;;;;;;;;5082982;28;19928;-64
2021/12/07 00:56:17;;;;;;;;;;;;;;;;;;5081517;28;20023;-63
2021/12/07 00:58:44;;;;;;;;;;;;;;;;;;5082217;28;19928;-64
2021/12/07 01:01:11;;;;;;;;;;;;;;;;;;5082526;28;19924;-63
2021/12/07 01:03:38;;;;;;;;;;;;;;;;;;5084404;28;19928;-64
2021/12/07 01:06:16;;;;;;;;;;;;;;;;;;5084291;28;19977;-63
2021/12/07 01:25:26;;;;;;;;;;;;;;;;;;5085876;28;19920;-63
2021/12/07 01:27:56;;;;;;;;;;;;;;;;;;5089253;28;19924;-63
2021/12/07 01:30:36;;;;;;;;;;;;;;;;;;5085663;28;19928;-63
2021/12/07 01:33:19;;;;;;;;;;;;;;;;;;5085877;28;19931;-63
2021/12/07 01:36:02;;;;;;;;;;;;;;;;;;5083036;28;19924;-64
2021/12/07 01:39:27;;;;;;;;;;;;;;;;;;5084295;28;19924;-63
2021/12/07 01:41:30;;;;;;;;;;;;;;;;;;5092590;28;20286;-63
2021/12/07 01:44:21;;;;;;;;;;;;;;;;;;5083355;28;19985;-63
2021/12/07 01:47:20;;;;;;;;;;;;;;;;;;5083747;28;21164;-63
2021/12/07 01:50:12;;;;;;;;;;;;;;;;;;5084489;28;19930;-63
2021/12/07 01:52:52;;;;;;;;;;;;;;;;;;5094009;28;19959;-63
2021/12/07 02:00:47;;;;;;;;;;;;;;;;;;5084483;28;19967;-63
2021/12/07 02:03:16;;;;;;;;;;;;;;;;;;5087098;28;20303;-63
2021/12/07 02:05:43;;;;;;;;;;;;;;;;;;5076285;28;20485;-63
2021/12/07 02:08:10;;;;;;;;;;;;;;;;;;5079963;28;20043;-63
2021/12/07 02:10:37;;;;;;;;;;;;;;;;;;5088702;28;19924;-64
2021/12/07 02:13:17;;;;;;;;;;;;;;;;;;5079288;28;20275;-62
2021/12/07 02:15:44;;;;;;;;;;;;;;;;;;5083783;28;20413;-62
2021/12/07 02:18:11;;;;;;;;;;;;;;;;;;5090725;28;19925;-62
2021/12/07 02:20:38;;;;;;;;;;;;;;;;;;5092528;28;19928;-62
2021/12/07 02:23:07;;;;;;;;;;;;;;;;;;5088557;28;20030;-63
2021/12/07 02:25:34;;;;;;;;;;;;;;;;;;5086441;28;19931;-65
2021/12/07 02:28:01;;;;;;;;;;;;;;;;;;5081609;28;20014;-63
2021/12/07 02:30:28;;;;;;;;;;;;;;;;;;5090671;28;20447;-63
2021/12/07 02:32:55;;;;;;;;;;;;;;;;;;5080761;28;20043;-63
2021/12/07 02:35:27;;;;;;;;;;;;;;;;;;5091345;28;19924;-63
2021/12/07 02:37:54;;;;;;;;;;;;;;;;;;5081309;28;20059;-63
2021/12/07 02:40:21;;;;;;;;;;;;;;;;;;5088391;28;19924;-63
2021/12/07 02:42:48;;;;;;;;;;;;;;;;;;5085144;28;19947;-63
2021/12/07 02:45:15;;;;;;;;;;;;;;;;;;5084123;28;19930;-63
2021/12/07 02:47:42;;;;;;;;;;;;;;;;;;5092100;28;19925;-63
2021/12/07 02:50:09;;;;;;;;;;;;;;;;;;5088138;28;19943;-64
2021/12/07 02:52:36;;;;;;;;;;;;;;;;;;5084694;28;19931;-62
2021/12/07 02:55:03;;;;;;;;;;;;;;;;;;5088548;28;20466;-63
2021/12/07 02:57:31;;;;;;;;;;;;;;;;;;5091183;28;19928;-63
2021/12/07 03:00:02;;;;;;;;;;;;;;;;;;5088880;28;19999;-62
2021/12/07 03:02:33;;;;;;;;;;;;;;;;;;5082965;28;19930;-63
2021/12/07 03:05:05;;;;;;;;;;;;;;;;;;5087162;28;19931;-62
2021/12/07 03:07:47;;;;;;;;;;;;;;;;;;5086085;28;19924;-62
2021/12/07 03:26:38;;;;;;;;;;;;;;;;;;5078238;28;19974;-63
2021/12/07 03:29:05;;;;;;;;;;;;;;;;;;5087101;28;19926;-63
2021/12/07 03:31:32;;;;;;;;;;;;;;;;;;5091499;28;19962;-63
2021/12/07 03:33:59;;;;;;;;;;;;;;;;;;5098829;22;20019;-68
2021/12/07 03:36:26;;;;;;;;;;;;;;;;;;5087519;28;19930;-69
2021/12/07 03:38:53;;;;;;;;;;;;;;;;;;5090400;28;19951;-69
2021/12/07 03:41:20;;;;;;;;;;;;;;;;;;5090769;28;19931;-68
2021/12/07 03:43:47;;;;;;;;;;;;;;;;;;5087422;28;19924;-68
2021/12/07 03:46:14;;;;;;;;;;;;;;;;;;5087001;28;19925;-68
2021/12/07 03:48:41;;;;;;;;;;;;;;;;;;5081927;28;19936;-68
2021/12/07 03:51:08;;;;;;;;;;;;;;;;;;5082016;28;19924;-68
2021/12/07 03:53:35;;;;;;;;;;;;;;;;;;5080629;28;19940;-69
2021/12/07 03:56:02;;;;;;;;;;;;;;;;;;5086070;28;19924;-68
2021/12/07 03:58:29;;;;;;;;;;;;;;;;;;5084041;28;19931;-68
2021/12/07 04:00:56;;;;;;;;;;;;;;;;;;5086880;28;19931;-68
2021/12/07 04:03:23;;;;;;;;;;;;;;;;;;5086781;28;19931;-69
2021/12/07 04:05:54;;;;;;;;;;;;;;;;;;5084892;28;20305;-69
2021/12/07 04:08:21;;;;;;;;;;;;;;;;;;5083095;28;20430;-69
2021/12/07 04:10:47;;;;;;;;;;;;;;;;;;5079321;28;20290;-68
2021/12/07 04:13:14;;;;;;;;;;;;;;;;;;5084192;28;20341;-68
2021/12/07 04:15:41;;;;;;;;;;;;;;;;;;5088100;28;19947;-68
2021/12/07 04:18:08;;;;;;;;;;;;;;;;;;5088441;28;19931;-68
2021/12/07 04:20:35;;;;;;;;;;;;;;;;;;5087945;28;19924;-68
2021/12/07 04:23:02;;;;;;;;;;;;;;;;;;5089277;28;19924;-69
2021/12/07 04:25:29;;;;;;;;;;;;;;;;;;5088039;28;19924;-69
2021/12/07 04:27:56;;;;;;;;;;;;;;;;;;5079663;28;19928;-68
2021/12/07 04:30:23;;;;;;;;;;;;;;;;;;5085400;28;19931;-69
2021/12/07 04:32:50;;;;;;;;;;;;;;;;;;5083849;28;19928;-69
2021/12/07 04:38:11;;;;;;;;;;;;;;;;;;5857168;22;19924;-63
2021/12/07 04:43:21;;;;;;;;;;;;;;;;;;5085223;28;19929;-64
2021/12/07 04:46:04;;;;;;;;;;;;;;;;;;5087221;28;20408;-64
2021/12/07 04:59:30;;;;;;;;;;;;;;;;;;5087612;28;19982;-63
2021/12/07 05:01:57;;;;;;;;;;;;;;;;;;5084359;28;19924;-63
2021/12/07 05:04:27;;;;;;;;;;;;;;;;;;5085560;28;19931;-63
2021/12/07 05:07:02;;;;;;;;;;;;;;;;;;5085204;28;19983;-63
2021/12/07 05:09:41;;;;;;;;;;;;;;;;;;5090676;28;19947;-63
2021/12/07 05:12:25;;;;;;;;;;;;;;;;;;5088612;28;19935;-63
2021/12/07 05:15:00;;;;;;;;;;;;;;;;;;5084894;28;19924;-62
2021/12/07 05:17:44;;;;;;;;;;;;;;;;;;5085686;28;20032;-62
2021/12/07 05:39:33;;;;;;;;;;;;;;;;;;5085098;28;19982;-63
2021/12/07 05:42:00;;;;;;;;;;;;;;;;;;5088818;28;19931;-63
2021/12/07 05:44:27;;;;;;;;;;;;;;;;;;5085442;28;20284;-63
2021/12/07 05:46:54;;;;;;;;;;;;;;;;;;5082390;28;19924;-63
2021/12/07 05:49:20;;;;;;;;;;;;;;;;;;5088254;28;19925;-63
2021/12/07 05:51:47;;;;;;;;;;;;;;;;;;5089966;28;19924;-63
2021/12/07 05:54:14;;;;;;;;;;;;;;;;;;5089955;28;19924;-63
2021/12/07 05:56:41;;;;;;;;;;;;;;;;;;5093631;28;19931;-63
2021/12/07 05:59:08;;;;;;;;;;;;;;;;;;5088777;28;19928;-62
2021/12/07 06:01:35;;;;;;;;;;;;;;;;;;5088174;28;19931;-63
2021/12/07 06:04:02;;;;;;;;;;;;;;;;;;5084697;28;20278;-63
2021/12/07 06:06:29;;;;;;;;;;;;;;;;;;5086342;28;19930;-63
2021/12/07 06:08:56;;;;;;;;;;;;;;;;;;5084037;28;19924;-63
2021/12/07 06:11:24;;;;;;;;;;;;;;;;;;5089016;28;19925;-63
2021/12/07 06:13:51;;;;;;;;;;;;;;;;;;5089526;28;19953;-63
2021/12/07 06:16:17;;;;;;;;;;;;;;;;;;5092781;28;19939;-62
2021/12/07 06:18:45;;;;;;;;;;;;;;;;;;5086294;28;19930;-63
2021/12/07 06:21:12;;;;;;;;;;;;;;;;;;5086830;28;19935;-62
2021/12/07 06:23:38;;;;;;;;;;;;;;;;;;5087659;28;19928;-63
2021/12/07 06:26:05;;;;;;;;;;;;;;;;;;5091209;28;20299;-63
2021/12/07 06:28:32;;;;;;;;;;;;;;;;;;5093163;28;19934;-63
2021/12/07 06:30:59;;;;;;;;;;;;;;;;;;5093423;28;19924;-63
2021/12/07 06:33:26;;;;;;;;;;;;;;;;;;5091061;28;19925;-63
2021/12/07 06:35:56;;;;;;;;;;;;;;;;;;5091226;28;20269;-64
2021/12/07 06:38:23;;;;;;;;;;;;;;;;;;5088345;28;19936;-63
2021/12/07 06:40:50;;;;;;;;;;;;;;;;;;5089913;28;19924;-62
2021/12/07 06:43:17;;;;;;;;;;;;;;;;;;5087331;28;19924;-63
2021/12/07 06:45:44;;;;;;;;;;;;;;;;;;5088734;28;19928;-63
2021/12/07 06:48:11;;;;;;;;;;;;;;;;;;5088207;28;19923;-62
2021/12/07 06:50:38;;;;;;;;;;;;;;;;;;5090066;28;20011;-63
2021/12/07 06:53:05;;;;;;;;;;;;;;;;;;5089360;28;19924;-63
2021/12/07 06:55:32;;;;;;;;;;;;;;;;;;5085830;28;19935;-64
2021/12/07 06:57:59;;;;;;;;;;;;;;;;;;5088386;28;19930;-62
2021/12/07 07:00:26;;;;;;;;;;;;;;;;;;5084636;28;19925;-62
2021/12/07 07:02:53;;;;;;;;;;;;;;;;;;5091535;28;20396;-63
2021/12/07 07:05:20;;;;;;;;;;;;;;;;;;5084152;28;19924;-63
2021/12/07 07:07:47;;;;;;;;;;;;;;;;;;5091454;28;20376;-63
2021/12/07 07:10:14;;;;;;;;;;;;;;;;;;5092416;28;19931;-64
2021/12/07 07:12:41;;;;;;;;;;;;;;;;;;5089834;28;19978;-63
2021/12/07 07:15:08;;;;;;;;;;;;;;;;;;5084049;28;20206;-62
2021/12/07 07:17:35;;;;;;;;;;;;;;;;;;5090516;28;20058;-63
2021/12/07 07:20:03;;;;;;;;;;;;;;;;;;5086117;28;19962;-63
2021/12/07 07:22:30;;;;;;;;;;;;;;;;;;5084909;28;19931;-63
2021/12/07 07:24:57;;;;;;;;;;;;;;;;;;5085551;28;19946;-63
2021/12/07 07:27:24;;;;;;;;;;;;;;;;;;5091981;28;19924;-63
2021/12/07 07:29:51;;;;;;;;;;;;;;;;;;5088144;28;19932;-64
2021/12/07 07:32:18;;;;;;;;;;;;;;;;;;5086293;28;20297;-64
2021/12/07 07:34:44;;;;;;;;;;;;;;;;;;5087798;28;19924;-64
2021/12/07 07:37:11;;;;;;;;;;;;;;;;;;5084391;28;19932;-64
2021/12/07 07:39:39;;;;;;;;;;;;;;;;;;5087319;28;20559;-63
2021/12/07 07:42:06;;;;;;;;;;;;;;;;;;5086611;28;20050;-63
2021/12/07 07:44:33;;;;;;;;;;;;;;;;;;5088530;28;20298;-63
2021/12/07 07:47:00;;;;;;;;;;;;;;;;;;5091021;28;19924;-64
2021/12/07 07:49:27;;;;;;;;;;;;;;;;;;5085666;28;19932;-63
2021/12/07 07:51:54;;;;;;;;;;;;;;;;;;5085854;28;19931;-63
2021/12/07 07:54:21;;;;;;;;;;;;;;;;;;5082169;28;19924;-63
2021/12/07 07:56:48;;;;;;;;;;;;;;;;;;5085892;28;19924;-62
2021/12/07 07:59:15;;;;;;;;;;;;;;;;;;5084969;28;19931;-63
2021/12/07 08:01:42;;;;;;;;;;;;;;;;;;5082837;28;20404;-64
2021/12/07 08:04:08;;;;;;;;;;;;;;;;;;5085241;28;19928;-64
2021/12/07 08:06:35;;;;;;;;;;;;;;;;;;5084466;28;19947;-62
2021/12/07 08:09:03;;;;;;;;;;;;;;;;;;5084016;28;20273;-64
2021/12/07 08:11:30;;;;;;;;;;;;;;;;;;5080027;28;19939;-64
2021/12/07 08:13:57;;;;;;;;;;;;;;;;;;5085704;28;19924;-62
2021/12/07 08:16:24;;;;;;;;;;;;;;;;;;5086215;28;19924;-63
2021/12/07 08:18:52;;;;;;;;;;;;;;;;;;5081606;28;19944;-63
2021/12/07 08:21:19;;;;;;;;;;;;;;;;;;5086643;28;20121;-65
2021/12/07 08:23:46;;;;;;;;;;;;;;;;;;5086716;28;20002;-64
2021/12/07 08:26:13;;;;;;;;;;;;;;;;;;5085012;28;19924;-63
2021/12/07 08:28:39;;;;;;;;;;;;;;;;;;5084706;28;19924;-63
2021/12/07 08:31:06;;;;;;;;;;;;;;;;;;5085661;28;19925;-63
2021/12/07 08:33:33;;;;;;;;;;;;;;;;;;5084738;28;19936;-63
2021/12/07 08:36:00;;;;;;;;;;;;;;;;;;5083924;28;20291;-62
2021/12/07 08:38:27;;;;;;;;;;;;;;;;;;5085962;28;19985;-64
2021/12/07 08:40:54;;;;;;;;;;;;;;;;;;5082385;28;19924;-64
2021/12/07 08:43:21;;;;;;;;;;;;;;;;;;5085164;28;19931;-64
2021/12/07 08:45:48;;;;;;;;;;;;;;;;;;5082053;28;19924;-63
2021/12/07 08:48:15;;;;;;;;;;;;;;;;;;5084712;28;19928;-63
2021/12/07 08:50:44;;;;;;;;;;;;;;;;;;5084059;28;19932;-64
2021/12/07 08:53:12;;;;;;;;;;;;;;;;;;5085322;28;19924;-64
2021/12/07 09:01:08;;;;;;;;;;;;;;;;;;5085128;28;19920;-63
2021/12/07 09:03:35;;;;;;;;;;;;;;;;;;5083572;28;19924;-65
2021/12/07 09:06:02;;;;;;;;;;;;;;;;;;5082230;28;19931;-63
2021/12/07 09:08:29;;;;;;;;;;;;;;;;;;5075053;28;20479;-66
2021/12/07 09:10:56;;;;;;;;;;;;;;;;;;5085941;28;19928;-64
2021/12/07 09:13:24;;;;;;;;;;;;;;;;;;5085180;28;19928;-64
2021/12/07 09:15:51;;;;;;;;;;;;;;;;;;5083442;28;19924;-65
2021/12/07 09:18:18;;;;;;;;;;;;;;;;;;5069923;28;19925;-65
2021/12/07 09:20:45;;;;;;;;;;;;;;;;;;5085207;28;19924;-65
2021/12/07 09:23:12;;;;;;;;;;;;;;;;;;5086902;28;19932;-65
2021/12/07 09:25:39;;;;;;;;;;;;;;;;;;5085223;28;19950;-64
2021/12/07 09:28:06;;;;;;;;;;;;;;;;;;5089742;28;20328;-64
2021/12/07 09:30:33;;;;;;;;;;;;;;;;;;5093143;28;19924;-64
2021/12/07 09:33:00;;;;;;;;;;;;;;;;;;5089339;28;19939;-66
2021/12/07 09:35:27;;;;;;;;;;;;;;;;;;5088009;28;19938;-65
2021/12/07 09:37:54;;;;;;;;;;;;;;;;;;5084445;28;20406;-66
2021/12/07 09:40:21;;;;;;;;;;;;;;;;;;5089390;28;19930;-63
2021/12/07 09:42:47;;;;;;;;;;;;;;;;;;5087380;28;19924;-64
2021/12/07 09:45:15;;;;;;;;;;;;;;;;;;5086478;28;20373;-64
2021/12/07 09:47:42;;;;;;;;;;;;;;;;;;5088474;28;19924;-64
2021/12/07 09:50:09;;;;;;;;;;;;;;;;;;5090606;28;19935;-66
2021/12/07 09:52:36;;;;;;;;;;;;;;;;;;5087364;28;19928;-64
2021/12/07 09:55:03;;;;;;;;;;;;;;;;;;5089166;28;19932;-65
2021/12/07 09:57:30;;;;;;;;;;;;;;;;;;5090240;28;20397;-64
2021/12/07 09:59:57;;;;;;;;;;;;;;;;;;5091054;28;19924;-64
2021/12/07 10:02:24;;;;;;;;;;;;;;;;;;5090501;28;20430;-63
2021/12/07 10:04:50;;;;;;;;;;;;;;;;;;5087967;28;19924;-65
2021/12/07 10:07:18;;;;;;;;;;;;;;;;;;5089092;28;20435;-64
2021/12/07 10:09:45;;;;;;;;;;;;;;;;;;5089342;28;20010;-67
2021/12/07 10:12:12;;;;;;;;;;;;;;;;;;5090133;28;19950;-64
2021/12/07 10:14:39;;;;;;;;;;;;;;;;;;5088614;28;20048;-65
2021/12/07 10:17:06;;;;;;;;;;;;;;;;;;5087558;28;19924;-66
2021/12/07 10:19:34;;;;;;;;;;;;;;;;;;5085005;28;19975;-66
2021/12/07 10:22:01;;;;;;;;;;;;;;;;;;5086442;28;19924;-65
2021/12/07 10:24:31;;;;;;;;;;;;;;;;;;5088602;28;19928;-67
2021/12/07 10:26:58;;;;;;;;;;;;;;;;;;5090585;28;20459;-66
2021/12/07 10:29:25;;;;;;;;;;;;;;;;;;5085940;28;20303;-66
2021/12/07 10:31:52;;;;;;;;;;;;;;;;;;5088992;28;20023;-64
2021/12/07 10:34:19;;;;;;;;;;;;;;;;;;5088352;28;19959;-65
2021/12/07 10:36:47;;;;;;;;;;;;;;;;;;5088043;28;20385;-65
2021/12/07 10:39:13;;;;;;;;;;;;;;;;;;5083029;28;19928;-65
2021/12/07 10:41:40;;;;;;;;;;;;;;;;;;5085848;28;19924;-66
2021/12/07 10:44:07;;;;;;;;;;;;;;;;;;5086124;28;20392;-65
2021/12/07 10:46:34;;;;;;;;;;;;;;;;;;5085306;28;20192;-65
2021/12/07 10:49:01;;;;;;;;;;;;;;;;;;5087970;28;19924;-64
2021/12/07 10:51:28;;;;;;;;;;;;;;;;;;5100701;22;19935;-66
2021/12/07 10:53:55;;;;;;;;;;;;;;;;;;5086400;28;19931;-65
2021/12/07 10:56:22;;;;;;;;;;;;;;;;;;5086424;28;19932;-64
2021/12/07 10:58:49;;;;;;;;;;;;;;;;;;5087748;28;19924;-65
2021/12/07 11:01:16;;;;;;;;;;;;;;;;;;5083946;28;19935;-65
2021/12/07 11:03:43;;;;;;;;;;;;;;;;;;5085261;28;19924;-65
2021/12/07 11:06:10;;;;;;;;;;;;;;;;;;5083473;28;19924;-64
2021/12/07 11:08:37;;;;;;;;;;;;;;;;;;5082775;28;20494;-64
2021/12/07 11:11:04;;;;;;;;;;;;;;;;;;5081591;28;19924;-65
2021/12/07 11:13:36;;;;;;;;;;;;;;;;;;5086464;28;19924;-65
2021/12/07 11:16:03;;;;;;;;;;;;;;;;;;5086294;28;20360;-65
2021/12/07 11:18:30;;;;;;;;;;;;;;;;;;5080414;28;20328;-65
2021/12/07 11:20:57;;;;;;;;;;;;;;;;;;5087090;28;19966;-65
2021/12/07 11:23:24;;;;;;;;;;;;;;;;;;5082084;28;20297;-65
2021/12/07 11:29:39;;;;;;;;;;;;;;;;;;5084443;28;19924;-64
2021/12/07 11:31:25;;;;;;;;;;;;;;;;;;5083105;28;19947;-66
2021/12/07 11:33:52;;;;;;;;;;;;;;;;;;5086825;28;19928;-65
2021/12/07 11:36:19;;;;;;;;;;;;;;;;;;5082161;28;19924;-65
2021/12/07 11:38:46;;;;;;;;;;;;;;;;;;5083084;28;19928;-65
2021/12/07 11:41:13;;;;;;;;;;;;;;;;;;5080717;28;19924;-65
2021/12/07 11:43:40;;;;;;;;;;;;;;;;;;5082336;28;19931;-63
2021/12/07 11:46:07;;;;;;;;;;;;;;;;;;5084956;28;19938;-63
2021/12/07 11:48:34;;;;;;;;;;;;;;;;;;5082119;28;19925;-64
2021/12/07 11:51:01;;;;;;;;;;;;;;;;;;5084052;28;20010;-64
2021/12/07 11:53:29;;;;;;;;;;;;;;;;;;5082445;28;19929;-65
2021/12/07 11:55:56;;;;;;;;;;;;;;;;;;5083283;28;19924;-65
2021/12/07 11:58:23;;;;;;;;;;;;;;;;;;5083760;28;20345;-64
2021/12/07 12:00:50;;;;;;;;;;;;;;;;;;5083183;28;19936;-64
2021/12/07 12:03:17;;;;;;;;;;;;;;;;;;5085483;28;19931;-64
2021/12/07 12:05:44;;;;;;;;;;;;;;;;;;5081249;28;20376;-65
2021/12/07 12:08:11;;;;;;;;;;;;;;;;;;5084362;28;19931;-65
2021/12/07 12:10:38;;;;;;;;;;;;;;;;;;5081918;28;19935;-65
2021/12/07 12:13:07;;;;;;;;;;;;;;;;;;5084585;28;19924;-64
2021/12/07 12:15:34;;;;;;;;;;;;;;;;;;5079949;28;19925;-64
2021/12/07 12:18:01;;;;;;;;;;;;;;;;;;5086093;28;19931;-64
2021/12/07 12:20:27;;;;;;;;;;;;;;;;;;5086442;28;19927;-64
2021/12/07 12:22:54;;;;;;;;;;;;;;;;;;5083605;28;19924;-65
2021/12/07 12:25:22;;;;;;;;;;;;;;;;;;5085074;28;19924;-64
2021/12/07 12:27:49;;;;;;;;;;;;;;;;;;5085492;28;19974;-65
2021/12/07 12:30:16;;;;;;;;;;;;;;;;;;5083283;28;19924;-64
2021/12/07 12:32:43;;;;;;;;;;;;;;;;;;5076929;28;19925;-64
2021/12/07 12:35:10;;;;;;;;;;;;;;;;;;5082902;28;19924;-65
2021/12/07 12:37:37;;;;;;;;;;;;;;;;;;5081845;28;19930;-66
2021/12/07 12:40:04;;;;;;;;;;;;;;;;;;5080631;28;19925;-65
2021/12/07 12:42:31;;;;;;;;;;;;;;;;;;5083178;28;20309;-65
2021/12/07 12:44:58;;;;;;;;;;;;;;;;;;5081119;28;19925;-65
2021/12/07 12:47:25;;;;;;;;;;;;;;;;;;5082383;28;19934;-66
2021/12/07 12:49:52;;;;;;;;;;;;;;;;;;5083509;28;19924;-66
2021/12/07 12:52:19;;;;;;;;;;;;;;;;;;5082489;28;19924;-66
2021/12/07 12:54:46;;;;;;;;;;;;;;;;;;5082600;28;20398;-66
2021/12/07 12:57:13;;;;;;;;;;;;;;;;;;5080847;28;20304;-66
2021/12/07 12:59:40;;;;;;;;;;;;;;;;;;5078187;28;19925;-65
2021/12/07 13:02:07;;;;;;;;;;;;;;;;;;5082045;28;20086;-65
2021/12/07 13:04:34;;;;;;;;;;;;;;;;;;5082370;28;20296;-65
2021/12/07 13:07:05;;;;;;;;;;;;;;;;;;5083906;28;19924;-66
2021/12/07 13:09:32;;;;;;;;;;;;;;;;;;5077913;28;19928;-64
2021/12/07 13:11:59;;;;;;;;;;;;;;;;;;5081751;28;19931;-66
2021/12/07 13:14:26;;;;;;;;;;;;;;;;;;5083216;28;19924;-65
2021/12/07 13:16:53;;;;;;;;;;;;;;;;;;5082035;28;20296;-65
2021/12/07 13:19:20;;;;;;;;;;;;;;;;;;5081057;28;19932;-65
2021/12/07 13:21:47;;;;;;;;;;;;;;;;;;5081629;28;19930;-65
2021/12/07 13:24:15;;;;;;;;;;;;;;;;;;5084830;28;19932;-64
2021/12/07 13:26:42;;;;;;;;;;;;;;;;;;5083767;28;19928;-64
2021/12/07 13:29:09;;;;;;;;;;;;;;;;;;5080876;28;19932;-64
2021/12/07 13:31:36;;;;;;;;;;;;;;;;;;5083256;28;20317;-64
2021/12/07 13:34:03;;;;;;;;;;;;;;;;;;5081111;28;19928;-64
2021/12/07 13:36:31;;;;;;;;;;;;;;;;;;5079397;28;19935;-64
2021/12/07 13:38:57;;;;;;;;;;;;;;;;;;5080710;28;20400;-65
2021/12/07 13:41:24;;;;;;;;;;;;;;;;;;5080416;28;20381;-65
2021/12/07 13:43:51;;;;;;;;;;;;;;;;;;5078339;28;19928;-64
2021/12/07 13:46:18;;;;;;;;;;;;;;;;;;5078397;28;20369;-64
2021/12/07 13:48:45;;;;;;;;;;;;;;;;;;5075334;28;19925;-65
2021/12/07 13:51:12;;;;;;;;;;;;;;;;;;5076864;28;19946;-65
2021/12/07 13:53:39;;;;;;;;;;;;;;;;;;5082100;28;19932;-64
2021/12/07 13:56:06;;;;;;;;;;;;;;;;;;5082679;28;19930;-65
2021/12/07 13:58:33;;;;;;;;;;;;;;;;;;5077701;28;19931;-65
2021/12/07 14:01:00;;;;;;;;;;;;;;;;;;5081781;28;19931;-66
2021/12/07 14:03:27;;;;;;;;;;;;;;;;;;5082782;28;19978;-65
2021/12/07 14:05:54;;;;;;;;;;;;;;;;;;5083255;28;19951;-65
2021/12/07 14:08:21;;;;;;;;;;;;;;;;;;5076877;28;20274;-65
2021/12/07 14:10:48;;;;;;;;;;;;;;;;;;5085065;28;19930;-65
2021/12/07 14:13:15;;;;;;;;;;;;;;;;;;5082955;28;19963;-67
2021/12/07 14:15:42;;;;;;;;;;;;;;;;;;5083000;28;20398;-66
2021/12/07 14:18:09;;;;;;;;;;;;;;;;;;5085073;28;19925;-65
2021/12/07 14:20:36;;;;;;;;;;;;;;;;;;5088291;28;20396;-64
2021/12/07 14:23:03;;;;;;;;;;;;;;;;;;5084624;28;19928;-65
2021/12/07 14:25:30;;;;;;;;;;;;;;;;;;5084347;28;19931;-65
2021/12/07 14:27:58;;;;;;;;;;;;;;;;;;5082599;28;19924;-64
2021/12/07 14:30:25;;;;;;;;;;;;;;;;;;5083857;28;19924;-63
2021/12/07 14:32:52;;;;;;;;;;;;;;;;;;5086827;28;19932;-64
2021/12/07 14:35:20;;;;;;;;;;;;;;;;;;5079404;28;19946;-64
2021/12/07 14:37:47;;;;;;;;;;;;;;;;;;5083624;28;19924;-65
2021/12/07 14:40:13;;;;;;;;;;;;;;;;;;5082485;28;19924;-65
2021/12/07 14:42:40;;;;;;;;;;;;;;;;;;5087297;28;20293;-65
2021/12/07 14:45:08;;;;;;;;;;;;;;;;;;5086905;28;19924;-65
2021/12/07 14:47:35;;;;;;;;;;;;;;;;;;5085201;28;19970;-65
2021/12/07 14:50:02;;;;;;;;;;;;;;;;;;5084201;28;19924;-65
2021/12/07 14:52:29;;;;;;;;;;;;;;;;;;5077232;28;19924;-65
2021/12/07 14:54:56;;;;;;;;;;;;;;;;;;5079724;28;19924;-65
2021/12/07 14:57:23;;;;;;;;;;;;;;;;;;5081748;28;20286;-65
2021/12/07 14:59:50;;;;;;;;;;;;;;;;;;5079858;28;19933;-65
2021/12/07 15:02:17;;;;;;;;;;;;;;;;;;5082014;28;19943;-65
2021/12/07 15:04:44;;;;;;;;;;;;;;;;;;5080337;28;19924;-65
2021/12/07 15:07:11;;;;;;;;;;;;;;;;;;5082430;28;19928;-65
2021/12/07 15:09:38;;;;;;;;;;;;;;;;;;5083776;28;19928;-66
2021/12/07 15:12:05;;;;;;;;;;;;;;;;;;5082459;28;20011;-66
2021/12/07 15:14:32;;;;;;;;;;;;;;;;;;5085872;28;20008;-64
2021/12/07 15:16:59;;;;;;;;;;;;;;;;;;5081162;28;19924;-64
2021/12/07 15:19:26;;;;;;;;;;;;;;;;;;5083681;28;20407;-65
2021/12/07 15:21:53;;;;;;;;;;;;;;;;;;5083590;28;20301;-65
2021/12/07 15:24:20;;;;;;;;;;;;;;;;;;5083573;28;19928;-65
2021/12/07 15:26:47;;;;;;;;;;;;;;;;;;5084314;28;19924;-65
2021/12/07 15:29:14;;;;;;;;;;;;;;;;;;5081933;28;19924;-66
2021/12/07 15:31:41;;;;;;;;;;;;;;;;;;5084643;28;20316;-66
2021/12/07 15:34:08;;;;;;;;;;;;;;;;;;5078776;28;20298;-66
2021/12/07 15:36:36;;;;;;;;;;;;;;;;;;5084154;28;20389;-66
2021/12/07 15:39:03;;;;;;;;;;;;;;;;;;5085420;28;19928;-66
2021/12/07 15:41:30;;;;;;;;;;;;;;;;;;5080637;28;19932;-66
2021/12/07 15:43:57;;;;;;;;;;;;;;;;;;5086344;28;19924;-64
2021/12/07 15:46:24;;;;;;;;;;;;;;;;;;5079787;28;19931;-65
2021/12/07 15:48:51;;;;;;;;;;;;;;;;;;5080464;28;19924;-65
2021/12/07 15:51:18;;;;;;;;;;;;;;;;;;5083144;28;20396;-65
2021/12/07 15:53:45;;;;;;;;;;;;;;;;;;5078611;28;19951;-65
2021/12/07 15:56:12;;;;;;;;;;;;;;;;;;5083962;28;19924;-65
2021/12/07 15:58:38;;;;;;;;;;;;;;;;;;5083152;28;19928;-65
2021/12/07 16:01:06;;;;;;;;;;;;;;;;;;5083436;28;19931;-64
2021/12/07 16:03:34;;;;;;;;;;;;;;;;;;5085921;28;19963;-65
2021/12/07 16:06:01;;;;;;;;;;;;;;;;;;5084773;28;20285;-65
2021/12/07 16:08:28;;;;;;;;;;;;;;;;;;5083254;28;19928;-65
2021/12/07 16:10:55;;;;;;;;;;;;;;;;;;5083002;28;19985;-65
2021/12/07 16:13:25;;;;;;;;;;;;;;;;;;5076367;28;19930;-64
2021/12/07 16:15:52;;;;;;;;;;;;;;;;;;5078889;28;20018;-65
2021/12/07 16:18:19;;;;;;;;;;;;;;;;;;5079924;28;19925;-64
2021/12/07 16:20:46;;;;;;;;;;;;;;;;;;5077272;28;19932;-64
2021/12/07 16:23:13;;;;;;;;;;;;;;;;;;5081889;28;19928;-64
2021/12/07 16:25:41;;;;;;;;;;;;;;;;;;5080942;28;20412;-64
2021/12/07 16:28:09;;;;;;;;;;;;;;;;;;5081638;28;20029;-65
2021/12/07 16:30:36;;;;;;;;;;;;;;;;;;5080893;28;20413;-65
2021/12/07 16:33:03;;;;;;;;;;;;;;;;;;5087232;28;20312;-65
2021/12/07 16:35:30;;;;;;;;;;;;;;;;;;5082964;28;19928;-65
2021/12/07 16:37:57;;;;;;;;;;;;;;;;;;5085975;28;20376;-64
2021/12/07 16:40:24;;;;;;;;;;;;;;;;;;5083255;28;19931;-64
2021/12/07 16:42:51;;;;;;;;;;;;;;;;;;5083580;28;19931;-65
2021/12/07 16:45:18;;;;;;;;;;;;;;;;;;5078276;28;19924;-65
2021/12/07 16:47:45;;;;;;;;;;;;;;;;;;5081803;28;19931;-65
2021/12/07 16:50:12;;;;;;;;;;;;;;;;;;5083849;28;20286;-65
2021/12/07 16:52:39;;;;;;;;;;;;;;;;;;5086237;22;19928;-64
2021/12/07 16:55:06;;;;;;;;;;;;;;;;;;5061731;28;19932;-64
2021/12/07 16:57:33;;;;;;;;;;;;;;;;;;5064729;28;19929;-64
2021/12/07 17:00:00;;;;;;;;;;;;;;;;;;5060036;28;19940;-64
2021/12/07 17:02:28;;;;;;;;;;;;;;;;;;5058197;28;19940;-63
2021/12/07 17:04:55;;;;;;;;;;;;;;;;;;5053706;28;20027;-64
2021/12/07 17:07:22;;;;;;;;;;;;;;;;;;5054645;28;20417;-63
2021/12/07 17:09:49;;;;;;;;;;;;;;;;;;5056865;28;19925;-64
2021/12/07 17:12:16;;;;;;;;;;;;;;;;;;5058596;28;19978;-64
2021/12/07 17:14:43;;;;;;;;;;;;;;;;;;5052829;28;20007;-64
2021/12/07 17:17:10;;;;;;;;;;;;;;;;;;5054916;28;19931;-63
2021/12/07 17:19:37;;;;;;;;;;;;;;;;;;5055375;28;19925;-64
2021/12/07 17:22:04;;;;;;;;;;;;;;;;;;5053288;28;20405;-64
2021/12/07 17:24:31;;;;;;;;;;;;;;;;;;5056239;28;20309;-64
2021/12/07 17:26:58;;;;;;;;;;;;;;;;;;5047823;28;20519;-65
2021/12/07 17:29:25;;;;;;;;;;;;;;;;;;5051034;28;19924;-63
2021/12/07 17:31:51;;;;;;;;;;;;;;;;;;5049616;28;19925;-64
2021/12/07 17:34:18;;;;;;;;;;;;;;;;;;5054990;28;19924;-64
2021/12/07 17:36:45;;;;;;;;;;;;;;;;;;5053695;28;19928;-63
2021/12/07 17:39:15;;;;;;;;;;;;;;;;;;5047136;28;20638;-63
2021/12/07 17:41:42;;;;;;;;;;;;;;;;;;5054020;28;19972;-64
2021/12/07 17:44:09;;;;;;;;;;;;;;;;;;5056819;28;19935;-64
2021/12/07 17:46:36;;;;;;;;;;;;;;;;;;5059401;28;19935;-64
2021/12/07 17:49:02;;;;;;;;;;;;;;;;;;5058981;28;19924;-64
2021/12/07 17:51:29;;;;;;;;;;;;;;;;;;5057356;28;20281;-63
2021/12/07 17:53:57;;;;;;;;;;;;;;;;;;5056071;28;19933;-63
2021/12/07 17:56:24;;;;;;;;;;;;;;;;;;5060512;28;19928;-63
2021/12/07 17:58:52;;;;;;;;;;;;;;;;;;5059446;28;19925;-63
2021/12/07 18:01:19;;;;;;;;;;;;;;;;;;5062242;28;20294;-66
2021/12/07 18:03:46;;;;;;;;;;;;;;;;;;5057102;28;20394;-64
2021/12/07 18:06:13;;;;;;;;;;;;;;;;;;5052269;28;19963;-64
2021/12/07 18:08:40;;;;;;;;;;;;;;;;;;5053576;28;20395;-64
2021/12/07 18:11:07;;;;;;;;;;;;;;;;;;5058414;28;19932;-64
2021/12/07 18:13:34;;;;;;;;;;;;;;;;;;5050965;28;19932;-63